createdAt,value
2018-05-27T13:47:12.427Z,6.50
2018-05-27T13:49:41.474Z,6.50
2018-05-27T13:52:14.675Z,7.30
2018-05-27T13:54:43.304Z,7.10
2018-05-27T13:57:11.971Z,7.43
2018-05-27T13:59:40.726Z,6.47
2018-05-27T14:02:13.525Z,7.20
2018-05-27T14:04:42.029Z,5.70
2018-05-27T14:07:14.583Z,6.57
2018-05-27T14:13:19.193Z,5.47
2018-05-27T14:15:48.484Z,5.60
2018-05-27T14:18:17.262Z,5.70
2018-05-27T14:20:45.870Z,5.87
2018-05-27T14:23:14.347Z,5.57
2018-05-27T14:25:43.371Z,4.70
2018-05-27T14:28:11.938Z,4.20
2018-05-27T14:30:40.927Z,5.03
2018-05-27T14:33:09.981Z,5.80
2018-05-27T14:35:38.323Z,4.50
2018-05-27T14:41:06.209Z,4.30
2018-05-27T14:43:39.332Z,4.10
2018-05-27T14:46:07.776Z,4.70
2018-05-27T14:48:40.168Z,4.27
2018-05-27T14:51:09.205Z,4.67
2018-05-27T14:53:38.961Z,4.13
2018-05-27T14:56:07.913Z,4.50
2018-05-27T14:58:47.011Z,5.90
2018-05-27T15:01:15.706Z,5.93
2018-05-27T15:03:44.924Z,5.13
2018-05-27T15:06:13.304Z,4.87
2018-05-27T15:08:41.575Z,7.17
2018-05-27T15:11:09.892Z,10.20
2018-05-27T15:13:38.746Z,8.73
2018-05-27T15:16:07.049Z,11.37
2018-05-27T15:18:36.521Z,13.37
2018-05-27T15:21:05.047Z,8.27
2018-05-27T15:23:34.105Z,8.30
2018-05-27T15:26:02.433Z,7.10
2018-05-27T15:28:31.975Z,8.50
2018-05-27T15:31:00.454Z,5.40
2018-05-27T15:33:29.005Z,9.10
2018-05-27T15:35:58.277Z,6.10
2018-05-27T15:38:26.473Z,6.90
2018-05-27T15:40:55.959Z,8.23
2018-05-27T15:43:24.159Z,7.70
2018-05-27T15:45:53.155Z,7.37
2018-05-27T15:48:23.480Z,7.80
2018-05-27T15:50:52.807Z,10.07
2018-05-27T15:53:21.486Z,10.97
2018-05-27T15:55:49.883Z,10.67
2018-05-27T15:58:19.020Z,13.97
2018-05-27T16:00:47.307Z,12.77
2018-05-27T16:03:16.475Z,9.17
2018-05-27T16:05:44.907Z,11.50
2018-05-27T16:08:13.554Z,9.33
2018-05-27T16:10:41.951Z,8.30
2018-05-27T16:13:11.508Z,10.13
2018-05-27T16:15:57.681Z,9.17
2018-05-27T16:18:26.459Z,10.20
2018-05-27T16:20:56.256Z,9.67
2018-05-27T16:23:24.836Z,11.73
2018-05-27T16:25:53.144Z,10.97
2018-05-27T16:28:21.515Z,10.50
2018-05-27T16:30:50.956Z,10.17
2018-05-27T16:33:20.143Z,10.93
2018-05-27T16:35:48.315Z,9.80
2018-05-27T16:38:17.206Z,11.40
2018-05-27T16:40:46.708Z,10.37
2018-05-27T16:43:14.979Z,9.80
2018-05-27T16:46:02.493Z,10.07
2018-05-27T16:48:31.264Z,11.10
2018-05-27T16:51:01.528Z,9.23
2018-05-27T16:53:30.874Z,9.40
2018-05-27T16:56:07.423Z,10.73
2018-05-27T16:58:36.049Z,10.00
2018-05-27T17:01:04.533Z,11.23
2018-05-27T17:03:32.899Z,20.93
2018-05-27T17:09:19.120Z,10.80
2018-05-27T17:19:01.863Z,10.60
2018-05-27T17:21:31.391Z,10.30
2018-05-27T17:24:01.992Z,10.87
2018-05-27T17:26:33.607Z,8.60
2018-05-27T17:29:01.965Z,6.83
2018-05-27T17:31:30.519Z,6.27
2018-05-27T17:33:59.577Z,5.43
2018-05-27T17:36:28.260Z,6.57
2018-05-27T17:38:56.714Z,5.00
2018-05-27T17:41:25.251Z,4.77
2018-05-27T17:43:53.805Z,6.10
2018-05-27T17:46:23.051Z,5.80
2018-05-27T17:48:51.363Z,6.03
2018-05-27T17:51:20.303Z,4.37
2018-05-27T17:53:54.389Z,4.23
2018-05-27T17:56:22.638Z,5.50
2018-05-27T17:58:50.857Z,6.00
2018-05-27T18:01:19.044Z,6.50
2018-05-27T18:03:48.089Z,17.27
2018-05-27T18:06:21.335Z,5.07
2018-05-27T18:08:50.044Z,5.57
2018-05-27T18:11:18.507Z,4.73
2018-05-27T18:13:47.534Z,4.10
2018-05-27T18:16:16.237Z,4.17
2018-05-27T18:18:44.511Z,6.67
2018-05-27T18:21:12.850Z,4.50
2018-05-27T18:23:41.986Z,6.23
2018-05-27T18:26:10.360Z,6.83
2018-05-27T18:28:38.909Z,5.70
2018-05-27T18:31:07.921Z,5.57
2018-05-27T18:33:36.264Z,5.13
2018-05-27T18:36:05.294Z,6.87
2018-05-27T18:38:33.815Z,5.30
2018-05-27T18:41:04.067Z,5.13
2018-05-27T18:43:33.003Z,5.10
2018-05-27T18:46:01.192Z,6.47
2018-05-27T18:48:29.495Z,5.43
2018-05-27T18:50:57.922Z,5.10
2018-05-27T18:53:26.911Z,5.07
2018-05-27T18:55:55.170Z,5.30
2018-05-27T18:58:24.167Z,5.33
2018-05-27T19:00:53.180Z,5.43
2018-05-27T19:03:22.457Z,5.13
2018-05-27T19:05:51.555Z,7.83
2018-05-27T19:08:20.631Z,6.40
2018-05-27T19:10:48.963Z,6.17
2018-05-27T19:15:50.022Z,6.13
2018-05-27T19:18:18.688Z,5.77
2018-05-27T19:20:48.193Z,6.00
2018-05-27T19:23:16.419Z,7.23
2018-05-27T19:25:44.712Z,8.20
2018-05-27T19:28:18.551Z,6.40
2018-05-27T19:30:49.622Z,7.43
2018-05-27T19:33:18.111Z,8.20
2018-05-27T19:35:46.389Z,7.47
2018-05-27T19:38:14.753Z,8.20
2018-05-27T19:40:43.083Z,9.90
2018-05-27T19:43:12.049Z,9.97
2018-05-27T19:45:40.353Z,12.47
2018-05-27T19:48:10.222Z,10.43
2018-05-27T19:50:38.438Z,12.90
2018-05-27T19:53:07.539Z,20.00
2018-05-27T19:55:36.652Z,10.83
2018-05-27T19:58:05.098Z,11.53
2018-05-27T20:00:34.209Z,14.57
2018-05-27T20:03:03.229Z,13.47
2018-05-27T20:08:19.752Z,10.90
2018-05-27T20:10:48.084Z,9.97
2018-05-27T20:13:17.394Z,10.10
2018-05-27T20:15:45.748Z,9.27
2018-05-27T20:18:14.103Z,9.03
2018-05-27T20:20:43.412Z,9.50
2018-05-27T20:23:12.106Z,9.03
2018-05-27T20:25:40.729Z,9.40
2018-05-27T20:28:10.781Z,9.60
2018-05-27T20:30:38.992Z,10.60
2018-05-27T20:33:07.261Z,9.67
2018-05-27T20:35:35.580Z,10.67
2018-05-27T20:38:03.876Z,11.20
2018-05-27T20:40:32.328Z,10.03
2018-05-27T20:43:00.619Z,9.30
2018-05-27T20:45:28.876Z,10.10
2018-05-27T20:47:59.407Z,9.17
2018-05-27T20:50:29.151Z,9.30
2018-05-27T20:52:57.420Z,10.37
2018-05-27T20:55:25.658Z,8.00
2018-05-27T20:57:54.604Z,8.27
2018-05-27T21:00:23.223Z,8.10
2018-05-27T21:02:51.523Z,8.47
2018-05-27T21:05:20.507Z,8.23
2018-05-27T21:07:49.014Z,7.77
2018-05-27T21:10:17.241Z,8.33
2018-05-27T21:12:52.117Z,7.40
2018-05-27T21:15:26.249Z,8.17
2018-05-27T21:17:54.755Z,7.60
2018-05-27T21:20:23.053Z,8.33
2018-05-27T21:22:51.377Z,7.83
2018-05-27T21:25:19.724Z,8.20
2018-05-27T21:27:56.787Z,8.47
2018-05-27T21:30:25.353Z,9.30
2018-05-27T21:32:53.625Z,8.63
2018-05-27T21:35:22.065Z,8.93
2018-05-27T21:37:50.448Z,9.30
2018-05-27T21:40:19.611Z,10.17
2018-05-27T21:42:47.909Z,9.40
2018-05-27T21:45:17.176Z,10.13
2018-05-27T21:47:45.809Z,10.13
2018-05-27T21:50:14.816Z,10.17
2018-05-27T21:52:43.184Z,10.33
2018-05-27T21:55:11.583Z,10.20
2018-05-27T21:57:40.144Z,10.17
2018-05-27T22:00:09.639Z,10.30
2018-05-27T22:02:50.022Z,10.40
2018-05-27T22:05:18.465Z,11.33
2018-05-27T22:07:48.008Z,11.30
2018-05-27T22:10:21.367Z,11.70
2018-05-27T22:12:50.516Z,11.10
2018-05-27T22:15:26.629Z,11.43
2018-05-27T22:17:54.919Z,12.07
2018-05-27T22:20:23.312Z,11.50
2018-05-27T22:22:56.488Z,11.20
2018-05-27T22:28:19.992Z,10.57
2018-05-27T22:30:48.448Z,11.90
2018-05-27T22:36:20.604Z,12.70
2018-05-27T22:38:48.815Z,13.47
2018-05-27T22:41:17.510Z,12.47
2018-05-27T22:43:47.940Z,12.90
2018-05-27T22:46:17.206Z,13.10
2018-05-27T22:48:45.755Z,12.53
2018-05-27T22:51:14.197Z,13.17
2018-05-27T22:53:42.600Z,13.80
2018-05-27T22:56:11.848Z,14.07
2018-05-27T22:58:40.362Z,13.93
2018-05-27T23:01:09.490Z,13.67
2018-05-27T23:03:38.636Z,14.23
2018-05-27T23:06:08.461Z,14.73
2018-05-27T23:08:36.739Z,15.20
2018-05-27T23:11:05.768Z,16.10
2018-05-27T23:13:34.104Z,15.63
2018-05-27T23:16:02.607Z,14.33
2018-05-27T23:18:31.597Z,14.80
2018-05-27T23:21:01.164Z,16.27
2018-05-27T23:23:29.713Z,15.70
2018-05-27T23:25:58.085Z,16.10
2018-05-27T23:28:26.385Z,16.13
2018-05-27T23:30:55.255Z,17.07
2018-05-27T23:33:23.659Z,16.73
2018-05-27T23:35:52.242Z,17.50
2018-05-27T23:38:20.584Z,18.47
2018-05-27T23:40:49.873Z,16.60
2018-05-27T23:43:18.416Z,15.83
2018-05-27T23:45:46.779Z,17.47
2018-05-27T23:48:19.106Z,18.10
2018-05-27T23:50:48.570Z,18.47
2018-05-27T23:53:16.977Z,19.17
2018-05-27T23:55:46.152Z,19.00
